sensor_id;sensor_type;location;lat;lon;timestamp;P1;durP1;ratioP1;P2;durP2;ratioP2
10132;SDS011;5106;50.926;7.080;2023-05-29T00:01:31;6.65;;;3.40;;
10132;SDS011;5106;50.926;7.080;2023-05-29T00:03:56;6.05;;;3.25;;
10132;SDS011;5106;50.926;7.080;2023-05-29T00:06:22;5.07;;;3.17;;
10132;SDS011;5106;50.926;7.080;2023-05-29T00:08:49;5.68;;;3.10;;
10132;SDS011;5106;50.926;7.080;2023-05-29T00:11:14;4.95;;;3.38;;
10132;SDS011;5106;50.926;7.080;2023-05-29T00:13:40;5.65;;;3.22;;
10132;SDS011;5106;50.926;7.080;2023-05-29T00:16:06;4.72;;;3.38;;
10132;SDS011;5106;50.926;7.080;2023-05-29T00:18:34;6.00;;;3.75;;
10132;SDS011;5106;50.926;7.080;2023-05-29T00:21:00;5.20;;;3.10;;
10132;SDS011;5106;50.926;7.080;2023-05-29T00:23:25;5.53;;;3.40;;
10132;SDS011;5106;50.926;7.080;2023-05-29T00:25:51;5.50;;;3.30;;
10132;SDS011;5106;50.926;7.080;2023-05-29T00:28:16;6.47;;;3.30;;
10132;SDS011;5106;50.926;7.080;2023-05-29T00:30:42;6.50;;;3.47;;
10132;SDS011;5106;50.926;7.080;2023-05-29T00:33:08;4.88;;;3.22;;
10132;SDS011;5106;50.926;7.080;2023-05-29T00:35:33;8.02;;;3.50;;
10132;SDS011;5106;50.926;7.080;2023-05-29T00:37:59;5.07;;;3.22;;
10132;SDS011;5106;50.926;7.080;2023-05-29T00:40:25;6.65;;;3.58;;
10132;SDS011;5106;50.926;7.080;2023-05-29T00:42:50;7.05;;;3.53;;
10132;SDS011;5106;50.926;7.080;2023-05-29T00:45:16;4.53;;;3.00;;
10132;SDS011;5106;50.926;7.080;2023-05-29T00:47:42;7.43;;;3.30;;
10132;SDS011;5106;50.926;7.080;2023-05-29T00:50:11;4.38;;;3.28;;
10132;SDS011;5106;50.926;7.080;2023-05-29T00:52:38;6.60;;;3.30;;
10132;SDS011;5106;50.926;7.080;2023-05-29T00:55:06;4.85;;;2.95;;
10132;SDS011;5106;50.926;7.080;2023-05-29T00:57:33;5.88;;;3.22;;
10132;SDS011;5106;50.926;7.080;2023-05-29T01:00:00;6.78;;;3.10;;
10132;SDS011;5106;50.926;7.080;2023-05-29T01:02:33;7.65;;;3.10;;
10132;SDS011;5106;50.926;7.080;2023-05-29T01:05:01;6.07;;;3.42;;
10132;SDS011;5106;50.926;7.080;2023-05-29T01:07:27;5.75;;;3.22;;
10132;SDS011;5106;50.926;7.080;2023-05-29T01:09:52;4.63;;;3.25;;
10132;SDS011;5106;50.926;7.080;2023-05-29T01:20:48;6.68;;;3.58;;
10132;SDS011;5106;50.926;7.080;2023-05-29T01:23:27;5.82;;;3.60;;
10132;SDS011;5106;50.926;7.080;2023-05-29T01:27:01;3.60;;;3.00;;
10132;SDS011;5106;50.926;7.080;2023-05-29T01:29:32;4.93;;;2.90;;
10132;SDS011;5106;50.926;7.080;2023-05-29T01:31:59;7.93;;;3.70;;
10132;SDS011;5106;50.926;7.080;2023-05-29T01:34:27;8.00;;;3.20;;
10132;SDS011;5106;50.926;7.080;2023-05-29T01:36:53;4.63;;;3.20;;
10132;SDS011;5106;50.926;7.080;2023-05-29T01:39:21;5.03;;;3.50;;
10132;SDS011;5106;50.926;7.080;2023-05-29T01:41:48;6.10;;;3.20;;
10132;SDS011;5106;50.926;7.080;2023-05-29T01:44:15;6.78;;;3.42;;
10132;SDS011;5106;50.926;7.080;2023-05-29T01:46:42;4.57;;;3.25;;
10132;SDS011;5106;50.926;7.080;2023-05-29T01:49:10;4.85;;;3.00;;
10132;SDS011;5106;50.926;7.080;2023-05-29T01:51:37;5.85;;;3.60;;
10132;SDS011;5106;50.926;7.080;2023-05-29T01:54:04;5.82;;;3.28;;
10132;SDS011;5106;50.926;7.080;2023-05-29T01:56:30;6.40;;;3.28;;
10132;SDS011;5106;50.926;7.080;2023-05-29T01:58:56;5.25;;;3.33;;
10132;SDS011;5106;50.926;7.080;2023-05-29T02:01:23;6.35;;;3.75;;
10132;SDS011;5106;50.926;7.080;2023-05-29T02:03:49;5.43;;;3.28;;
10132;SDS011;5106;50.926;7.080;2023-05-29T02:06:18;4.70;;;3.28;;
10132;SDS011;5106;50.926;7.080;2023-05-29T02:08:44;6.75;;;3.83;;
10132;SDS011;5106;50.926;7.080;2023-05-29T02:11:10;5.57;;;3.25;;
10132;SDS011;5106;50.926;7.080;2023-05-29T02:13:36;5.13;;;3.10;;
10132;SDS011;5106;50.926;7.080;2023-05-29T02:16:02;5.18;;;3.42;;
10132;SDS011;5106;50.926;7.080;2023-05-29T02:18:28;7.65;;;3.60;;
10132;SDS011;5106;50.926;7.080;2023-05-29T02:20:54;5.85;;;3.20;;
10132;SDS011;5106;50.926;7.080;2023-05-29T02:23:20;5.20;;;3.17;;
10132;SDS011;5106;50.926;7.080;2023-05-29T02:25:46;3.75;;;3.03;;
10132;SDS011;5106;50.926;7.080;2023-05-29T02:28:11;9.23;;;3.63;;
10132;SDS011;5106;50.926;7.080;2023-05-29T02:30:37;6.00;;;3.22;;
10132;SDS011;5106;50.926;7.080;2023-05-29T02:33:03;5.75;;;3.42;;
10132;SDS011;5106;50.926;7.080;2023-05-29T02:35:28;7.55;;;3.35;;
10132;SDS011;5106;50.926;7.080;2023-05-29T02:37:54;5.35;;;3.20;;
10132;SDS011;5106;50.926;7.080;2023-05-29T02:40:20;4.95;;;3.30;;
10132;SDS011;5106;50.926;7.080;2023-05-29T02:42:46;4.93;;;3.10;;
10132;SDS011;5106;50.926;7.080;2023-05-29T02:45:12;4.85;;;3.60;;
10132;SDS011;5106;50.926;7.080;2023-05-29T02:47:38;5.15;;;3.13;;
10132;SDS011;5106;50.926;7.080;2023-05-29T02:50:04;4.40;;;3.25;;
10132;SDS011;5106;50.926;7.080;2023-05-29T02:52:31;4.47;;;2.88;;
10132;SDS011;5106;50.926;7.080;2023-05-29T02:54:57;4.03;;;3.15;;
10132;SDS011;5106;50.926;7.080;2023-05-29T02:57:23;4.20;;;2.72;;
10132;SDS011;5106;50.926;7.080;2023-05-29T02:59:49;6.03;;;3.22;;
10132;SDS011;5106;50.926;7.080;2023-05-29T03:02:16;6.40;;;3.58;;
10132;SDS011;5106;50.926;7.080;2023-05-29T03:04:42;4.85;;;3.08;;
10132;SDS011;5106;50.926;7.080;2023-05-29T03:07:09;3.33;;;2.83;;
10132;SDS011;5106;50.926;7.080;2023-05-29T03:09:35;8.38;;;3.00;;
10132;SDS011;5106;50.926;7.080;2023-05-29T03:12:00;5.30;;;3.22;;
10132;SDS011;5106;50.926;7.080;2023-05-29T03:14:26;5.32;;;3.35;;
10132;SDS011;5106;50.926;7.080;2023-05-29T03:16:52;5.30;;;3.20;;
10132;SDS011;5106;50.926;7.080;2023-05-29T03:19:18;5.25;;;2.65;;
10132;SDS011;5106;50.926;7.080;2023-05-29T03:21:44;5.72;;;3.45;;
10132;SDS011;5106;50.926;7.080;2023-05-29T03:24:10;5.00;;;3.20;;
10132;SDS011;5106;50.926;7.080;2023-05-29T03:26:38;4.53;;;2.72;;
10132;SDS011;5106;50.926;7.080;2023-05-29T03:29:04;4.22;;;3.10;;
10132;SDS011;5106;50.926;7.080;2023-05-29T03:31:30;6.28;;;3.25;;
10132;SDS011;5106;50.926;7.080;2023-05-29T03:33:56;6.18;;;3.28;;
10132;SDS011;5106;50.926;7.080;2023-05-29T03:36:21;8.18;;;3.55;;
10132;SDS011;5106;50.926;7.080;2023-05-29T03:38:47;7.03;;;3.17;;
10132;SDS011;5106;50.926;7.080;2023-05-29T03:41:12;5.35;;;3.47;;
10132;SDS011;5106;50.926;7.080;2023-05-29T03:43:38;5.93;;;2.70;;
10132;SDS011;5106;50.926;7.080;2023-05-29T03:46:04;7.45;;;3.00;;
10132;SDS011;5106;50.926;7.080;2023-05-29T03:48:29;5.40;;;3.03;;
10132;SDS011;5106;50.926;7.080;2023-05-29T03:50:55;7.07;;;3.65;;
10132;SDS011;5106;50.926;7.080;2023-05-29T03:53:21;4.95;;;2.90;;
10132;SDS011;5106;50.926;7.080;2023-05-29T03:55:47;4.78;;;3.05;;
10132;SDS011;5106;50.926;7.080;2023-05-29T03:58:12;6.72;;;3.30;;
10132;SDS011;5106;50.926;7.080;2023-05-29T04:00:38;6.28;;;3.33;;
10132;SDS011;5106;50.926;7.080;2023-05-29T04:03:04;5.65;;;3.33;;
10132;SDS011;5106;50.926;7.080;2023-05-29T04:05:30;9.13;;;3.72;;
10132;SDS011;5106;50.926;7.080;2023-05-29T04:07:55;6.55;;;3.58;;
10132;SDS011;5106;50.926;7.080;2023-05-29T04:10:21;6.80;;;3.65;;
10132;SDS011;5106;50.926;7.080;2023-05-29T04:12:47;7.47;;;3.67;;
10132;SDS011;5106;50.926;7.080;2023-05-29T04:15:12;7.88;;;3.83;;
10132;SDS011;5106;50.926;7.080;2023-05-29T04:17:38;6.65;;;3.30;;
10132;SDS011;5106;50.926;7.080;2023-05-29T04:20:04;7.65;;;3.80;;
10132;SDS011;5106;50.926;7.080;2023-05-29T04:22:34;9.13;;;4.60;;
10132;SDS011;5106;50.926;7.080;2023-05-29T04:25:01;6.43;;;3.50;;
10132;SDS011;5106;50.926;7.080;2023-05-29T04:27:28;5.07;;;3.78;;
10132;SDS011;5106;50.926;7.080;2023-05-29T04:29:55;6.03;;;4.10;;
10132;SDS011;5106;50.926;7.080;2023-05-29T04:32:20;9.65;;;3.90;;
10132;SDS011;5106;50.926;7.080;2023-05-29T04:34:46;7.20;;;4.10;;
10132;SDS011;5106;50.926;7.080;2023-05-29T04:37:12;8.05;;;3.67;;
10132;SDS011;5106;50.926;7.080;2023-05-29T04:39:38;7.53;;;3.83;;
10132;SDS011;5106;50.926;7.080;2023-05-29T04:42:04;12.98;;;4.25;;
10132;SDS011;5106;50.926;7.080;2023-05-29T04:44:30;11.18;;;4.40;;
10132;SDS011;5106;50.926;7.080;2023-05-29T04:46:55;10.25;;;4.57;;
10132;SDS011;5106;50.926;7.080;2023-05-29T04:49:22;7.55;;;4.20;;
10132;SDS011;5106;50.926;7.080;2023-05-29T04:51:47;8.00;;;4.22;;
10132;SDS011;5106;50.926;7.080;2023-05-29T04:54:13;7.57;;;3.90;;
10132;SDS011;5106;50.926;7.080;2023-05-29T04:56:39;7.05;;;3.85;;
10132;SDS011;5106;50.926;7.080;2023-05-29T04:59:08;8.02;;;4.65;;
10132;SDS011;5106;50.926;7.080;2023-05-29T05:01:34;7.88;;;4.30;;
10132;SDS011;5106;50.926;7.080;2023-05-29T05:04:00;8.27;;;4.10;;
10132;SDS011;5106;50.926;7.080;2023-05-29T05:06:25;6.90;;;4.20;;
10132;SDS011;5106;50.926;7.080;2023-05-29T05:08:52;8.23;;;4.28;;
10132;SDS011;5106;50.926;7.080;2023-05-29T05:11:18;8.38;;;3.80;;
10132;SDS011;5106;50.926;7.080;2023-05-29T05:13:44;9.75;;;4.32;;
10132;SDS011;5106;50.926;7.080;2023-05-29T05:16:09;8.13;;;3.72;;
10132;SDS011;5106;50.926;7.080;2023-05-29T05:18:35;6.72;;;4.28;;
10132;SDS011;5106;50.926;7.080;2023-05-29T05:21:01;7.72;;;4.25;;
10132;SDS011;5106;50.926;7.080;2023-05-29T05:23:28;8.23;;;3.90;;
10132;SDS011;5106;50.926;7.080;2023-05-29T05:25:54;7.72;;;4.22;;
10132;SDS011;5106;50.926;7.080;2023-05-29T05:28:20;8.60;;;3.88;;
10132;SDS011;5106;50.926;7.080;2023-05-29T05:30:46;9.15;;;3.97;;
10132;SDS011;5106;50.926;7.080;2023-05-29T05:33:11;10.55;;;4.65;;
10132;SDS011;5106;50.926;7.080;2023-05-29T05:35:37;9.23;;;4.13;;
10132;SDS011;5106;50.926;7.080;2023-05-29T05:38:03;9.65;;;4.07;;
10132;SDS011;5106;50.926;7.080;2023-05-29T05:40:29;9.20;;;4.47;;
10132;SDS011;5106;50.926;7.080;2023-05-29T05:42:54;8.15;;;4.32;;
10132;SDS011;5106;50.926;7.080;2023-05-29T05:45:20;8.30;;;4.65;;
10132;SDS011;5106;50.926;7.080;2023-05-29T05:47:46;11.95;;;4.45;;
10132;SDS011;5106;50.926;7.080;2023-05-29T05:50:11;11.20;;;4.47;;
10132;SDS011;5106;50.926;7.080;2023-05-29T05:52:38;8.18;;;4.72;;
10132;SDS011;5106;50.926;7.080;2023-05-29T05:55:05;8.00;;;4.13;;
10132;SDS011;5106;50.926;7.080;2023-05-29T05:57:31;8.35;;;4.55;;
10132;SDS011;5106;50.926;7.080;2023-05-29T05:59:58;10.80;;;4.43;;
10132;SDS011;5106;50.926;7.080;2023-05-29T06:02:25;12.55;;;4.75;;
10132;SDS011;5106;50.926;7.080;2023-05-29T06:04:51;12.45;;;5.13;;
10132;SDS011;5106;50.926;7.080;2023-05-29T06:07:16;13.00;;;5.07;;
10132;SDS011;5106;50.926;7.080;2023-05-29T06:09:43;8.00;;;4.38;;
10132;SDS011;5106;50.926;7.080;2023-05-29T06:12:08;13.43;;;4.47;;
10132;SDS011;5106;50.926;7.080;2023-05-29T06:14:34;7.13;;;4.45;;
10132;SDS011;5106;50.926;7.080;2023-05-29T06:17:00;8.90;;;4.55;;
10132;SDS011;5106;50.926;7.080;2023-05-29T06:19:26;11.30;;;4.53;;
10132;SDS011;5106;50.926;7.080;2023-05-29T06:21:52;13.20;;;5.05;;
10132;SDS011;5106;50.926;7.080;2023-05-29T06:24:17;9.35;;;4.63;;
10132;SDS011;5106;50.926;7.080;2023-05-29T06:26:43;10.85;;;4.38;;
10132;SDS011;5106;50.926;7.080;2023-05-29T06:29:09;13.15;;;4.65;;
10132;SDS011;5106;50.926;7.080;2023-05-29T06:31:34;9.77;;;4.75;;
10132;SDS011;5106;50.926;7.080;2023-05-29T06:34:00;9.43;;;4.28;;
10132;SDS011;5106;50.926;7.080;2023-05-29T06:36:26;11.23;;;4.53;;
10132;SDS011;5106;50.926;7.080;2023-05-29T06:38:51;10.68;;;4.70;;
10132;SDS011;5106;50.926;7.080;2023-05-29T06:41:17;8.07;;;4.32;;
10132;SDS011;5106;50.926;7.080;2023-05-29T06:43:43;8.57;;;4.55;;
10132;SDS011;5106;50.926;7.080;2023-05-29T06:46:09;10.95;;;4.32;;
10132;SDS011;5106;50.926;7.080;2023-05-29T06:48:35;11.52;;;4.35;;
10132;SDS011;5106;50.926;7.080;2023-05-29T06:51:01;12.40;;;4.70;;
10132;SDS011;5106;50.926;7.080;2023-05-29T06:53:34;12.32;;;4.45;;
10132;SDS011;5106;50.926;7.080;2023-05-29T06:56:00;8.85;;;4.60;;
10132;SDS011;5106;50.926;7.080;2023-05-29T06:58:26;9.52;;;4.53;;
10132;SDS011;5106;50.926;7.080;2023-05-29T07:00:51;10.48;;;4.05;;
10132;SDS011;5106;50.926;7.080;2023-05-29T07:03:17;9.32;;;3.67;;
10132;SDS011;5106;50.926;7.080;2023-05-29T07:05:42;13.60;;;4.78;;
10132;SDS011;5106;50.926;7.080;2023-05-29T07:08:08;8.70;;;3.83;;
10132;SDS011;5106;50.926;7.080;2023-05-29T07:10:34;9.60;;;3.85;;
10132;SDS011;5106;50.926;7.080;2023-05-29T07:12:59;13.80;;;3.90;;
10132;SDS011;5106;50.926;7.080;2023-05-29T07:15:25;10.68;;;3.90;;
10132;SDS011;5106;50.926;7.080;2023-05-29T07:17:50;9.20;;;3.78;;
10132;SDS011;5106;50.926;7.080;2023-05-29T07:20:16;12.52;;;4.30;;
10132;SDS011;5106;50.926;7.080;2023-05-29T07:22:44;9.80;;;3.97;;
10132;SDS011;5106;50.926;7.080;2023-05-29T07:25:09;8.60;;;3.80;;
10132;SDS011;5106;50.926;7.080;2023-05-29T07:27:35;7.80;;;3.53;;
10132;SDS011;5106;50.926;7.080;2023-05-29T07:30:01;10.70;;;3.65;;
10132;SDS011;5106;50.926;7.080;2023-05-29T07:32:26;8.02;;;3.80;;
10132;SDS011;5106;50.926;7.080;2023-05-29T07:34:52;10.02;;;3.97;;
10132;SDS011;5106;50.926;7.080;2023-05-29T07:37:17;7.70;;;3.45;;
10132;SDS011;5106;50.926;7.080;2023-05-29T07:39:44;8.25;;;4.30;;
10132;SDS011;5106;50.926;7.080;2023-05-29T07:42:10;10.30;;;3.92;;
10132;SDS011;5106;50.926;7.080;2023-05-29T07:44:35;9.18;;;3.83;;
10132;SDS011;5106;50.926;7.080;2023-05-29T07:47:01;9.07;;;3.88;;
10132;SDS011;5106;50.926;7.080;2023-05-29T07:49:26;6.32;;;3.30;;
10132;SDS011;5106;50.926;7.080;2023-05-29T07:51:52;14.45;;;4.30;;
10132;SDS011;5106;50.926;7.080;2023-05-29T07:54:18;10.57;;;4.55;;
10132;SDS011;5106;50.926;7.080;2023-05-29T07:56:46;8.88;;;4.07;;
10132;SDS011;5106;50.926;7.080;2023-05-29T07:59:12;6.45;;;3.67;;
10132;SDS011;5106;50.926;7.080;2023-05-29T08:01:42;8.88;;;3.85;;
10132;SDS011;5106;50.926;7.080;2023-05-29T08:04:09;14.27;;;4.55;;
10132;SDS011;5106;50.926;7.080;2023-05-29T08:06:34;8.32;;;3.65;;
10132;SDS011;5106;50.926;7.080;2023-05-29T08:09:01;6.25;;;3.38;;
10132;SDS011;5106;50.926;7.080;2023-05-29T08:11:30;10.02;;;4.28;;
10132;SDS011;5106;50.926;7.080;2023-05-29T08:13:57;8.02;;;3.65;;
10132;SDS011;5106;50.926;7.080;2023-05-29T08:16:26;9.70;;;4.30;;
10132;SDS011;5106;50.926;7.080;2023-05-29T08:18:52;8.85;;;3.85;;
10132;SDS011;5106;50.926;7.080;2023-05-29T08:21:18;8.18;;;3.60;;
10132;SDS011;5106;50.926;7.080;2023-05-29T08:23:44;10.02;;;3.97;;
10132;SDS011;5106;50.926;7.080;2023-05-29T08:26:09;9.27;;;3.72;;
10132;SDS011;5106;50.926;7.080;2023-05-29T08:28:35;8.82;;;3.55;;
10132;SDS011;5106;50.926;7.080;2023-05-29T08:31:00;8.07;;;3.50;;
10132;SDS011;5106;50.926;7.080;2023-05-29T08:33:26;7.85;;;3.53;;
10132;SDS011;5106;50.926;7.080;2023-05-29T08:35:52;12.52;;;3.80;;
10132;SDS011;5106;50.926;7.080;2023-05-29T08:38:17;8.20;;;3.53;;
10132;SDS011;5106;50.926;7.080;2023-05-29T08:40:43;5.97;;;3.30;;
10132;SDS011;5106;50.926;7.080;2023-05-29T08:45:39;8.82;;;3.80;;
10132;SDS011;5106;50.926;7.080;2023-05-29T08:48:09;7.20;;;3.15;;
10132;SDS011;5106;50.926;7.080;2023-05-29T08:50:36;6.22;;;3.50;;
10132;SDS011;5106;50.926;7.080;2023-05-29T08:53:10;10.48;;;3.55;;
10132;SDS011;5106;50.926;7.080;2023-05-29T08:55:37;9.63;;;3.30;;
10132;SDS011;5106;50.926;7.080;2023-05-29T08:58:02;7.32;;;3.35;;
10132;SDS011;5106;50.926;7.080;2023-05-29T09:00:29;8.48;;;3.58;;
10132;SDS011;5106;50.926;7.080;2023-05-29T09:02:55;6.53;;;2.90;;
10132;SDS011;5106;50.926;7.080;2023-05-29T09:05:21;8.32;;;3.03;;
10132;SDS011;5106;50.926;7.080;2023-05-29T09:07:47;8.98;;;3.33;;
10132;SDS011;5106;50.926;7.080;2023-05-29T09:10:14;11.23;;;4.13;;
10132;SDS011;5106;50.926;7.080;2023-05-29T09:12:40;7.57;;;2.92;;
10132;SDS011;5106;50.926;7.080;2023-05-29T09:15:27;9.98;;;3.30;;
10132;SDS011;5106;50.926;7.080;2023-05-29T09:17:53;6.35;;;3.20;;
10132;SDS011;5106;50.926;7.080;2023-05-29T09:20:20;7.35;;;3.28;;
10132;SDS011;5106;50.926;7.080;2023-05-29T09:22:59;7.32;;;3.13;;
10132;SDS011;5106;50.926;7.080;2023-05-29T09:25:30;7.30;;;2.95;;
10132;SDS011;5106;50.926;7.080;2023-05-29T09:33:04;6.05;;;3.38;;
10132;SDS011;5106;50.926;7.080;2023-05-29T09:35:32;5.95;;;3.10;;
10132;SDS011;5106;50.926;7.080;2023-05-29T09:37:59;7.32;;;3.50;;
10132;SDS011;5106;50.926;7.080;2023-05-29T09:40:24;9.73;;;3.00;;
10132;SDS011;5106;50.926;7.080;2023-05-29T09:42:50;7.88;;;3.35;;
10132;SDS011;5106;50.926;7.080;2023-05-29T09:45:19;6.15;;;3.17;;
10132;SDS011;5106;50.926;7.080;2023-05-29T09:47:46;7.50;;;3.10;;
10132;SDS011;5106;50.926;7.080;2023-05-29T09:50:18;6.63;;;2.88;;
10132;SDS011;5106;50.926;7.080;2023-05-29T09:52:47;9.32;;;3.45;;
10132;SDS011;5106;50.926;7.080;2023-05-29T09:55:17;11.45;;;3.28;;
10132;SDS011;5106;50.926;7.080;2023-05-29T09:57:46;9.73;;;3.35;;
10132;SDS011;5106;50.926;7.080;2023-05-29T10:00:13;9.60;;;3.47;;
10132;SDS011;5106;50.926;7.080;2023-05-29T10:02:41;8.60;;;3.53;;
10132;SDS011;5106;50.926;7.080;2023-05-29T10:05:07;5.05;;;3.08;;
10132;SDS011;5106;50.926;7.080;2023-05-29T10:07:34;5.43;;;3.05;;
10132;SDS011;5106;50.926;7.080;2023-05-29T10:10:03;9.35;;;3.15;;
10132;SDS011;5106;50.926;7.080;2023-05-29T10:12:37;11.57;;;3.45;;
10132;SDS011;5106;50.926;7.080;2023-05-29T10:15:05;7.25;;;2.90;;
10132;SDS011;5106;50.926;7.080;2023-05-29T10:17:36;7.72;;;3.13;;
10132;SDS011;5106;50.926;7.080;2023-05-29T10:20:05;6.97;;;3.05;;
10132;SDS011;5106;50.926;7.080;2023-05-29T10:22:35;9.63;;;3.30;;
10132;SDS011;5106;50.926;7.080;2023-05-29T10:25:06;8.05;;;3.20;;
10132;SDS011;5106;50.926;7.080;2023-05-29T10:27:34;9.23;;;3.47;;
10132;SDS011;5106;50.926;7.080;2023-05-29T10:30:09;9.70;;;3.55;;
10132;SDS011;5106;50.926;7.080;2023-05-29T10:32:55;6.05;;;3.15;;
10132;SDS011;5106;50.926;7.080;2023-05-29T10:38:11;7.15;;;3.35;;
10132;SDS011;5106;50.926;7.080;2023-05-29T10:40:38;8.10;;;3.30;;
10132;SDS011;5106;50.926;7.080;2023-05-29T10:43:04;8.75;;;3.55;;
10132;SDS011;5106;50.926;7.080;2023-05-29T10:50:40;7.70;;;3.33;;
10132;SDS011;5106;50.926;7.080;2023-05-29T10:53:10;9.38;;;3.28;;
10132;SDS011;5106;50.926;7.080;2023-05-29T10:55:41;8.10;;;3.30;;
10132;SDS011;5106;50.926;7.080;2023-05-29T10:58:07;6.18;;;3.38;;
10132;SDS011;5106;50.926;7.080;2023-05-29T11:00:39;6.43;;;2.97;;
10132;SDS011;5106;50.926;7.080;2023-05-29T11:03:09;6.13;;;2.92;;
10132;SDS011;5106;50.926;7.080;2023-05-29T11:05:55;8.00;;;3.28;;
10132;SDS011;5106;50.926;7.080;2023-05-29T11:08:44;10.30;;;3.42;;
10132;SDS011;5106;50.926;7.080;2023-05-29T11:13:54;7.80;;;3.25;;
10132;SDS011;5106;50.926;7.080;2023-05-29T11:18:51;6.88;;;3.20;;
10132;SDS011;5106;50.926;7.080;2023-05-29T11:24:03;7.03;;;3.08;;
10132;SDS011;5106;50.926;7.080;2023-05-29T11:26:31;8.82;;;3.38;;
10132;SDS011;5106;50.926;7.080;2023-05-29T11:28:58;7.72;;;3.13;;
10132;SDS011;5106;50.926;7.080;2023-05-29T11:31:32;7.03;;;3.28;;
10132;SDS011;5106;50.926;7.080;2023-05-29T11:34:00;5.75;;;3.05;;
10132;SDS011;5106;50.926;7.080;2023-05-29T11:36:29;5.53;;;2.83;;
10132;SDS011;5106;50.926;7.080;2023-05-29T11:38:57;5.70;;;3.22;;
10132;SDS011;5106;50.926;7.080;2023-05-29T11:41:23;7.18;;;3.40;;
10132;SDS011;5106;50.926;7.080;2023-05-29T11:44:00;6.70;;;3.15;;
10132;SDS011;5106;50.926;7.080;2023-05-29T11:46:28;6.63;;;3.40;;
10132;SDS011;5106;50.926;7.080;2023-05-29T11:48:57;7.85;;;3.65;;
10132;SDS011;5106;50.926;7.080;2023-05-29T11:51:23;8.80;;;3.60;;
10132;SDS011;5106;50.926;7.080;2023-05-29T11:53:50;5.15;;;3.25;;
10132;SDS011;5106;50.926;7.080;2023-05-29T11:56:18;6.40;;;3.33;;
10132;SDS011;5106;50.926;7.080;2023-05-29T11:58:44;8.25;;;3.15;;
10132;SDS011;5106;50.926;7.080;2023-05-29T12:01:10;6.97;;;2.83;;
10132;SDS011;5106;50.926;7.080;2023-05-29T12:03:42;6.68;;;3.25;;
10132;SDS011;5106;50.926;7.080;2023-05-29T12:06:11;9.88;;;3.63;;
10132;SDS011;5106;50.926;7.080;2023-05-29T12:08:37;8.75;;;3.20;;
10132;SDS011;5106;50.926;7.080;2023-05-29T12:11:04;7.50;;;3.33;;
10132;SDS011;5106;50.926;7.080;2023-05-29T12:13:30;7.40;;;3.47;;
10132;SDS011;5106;50.926;7.080;2023-05-29T12:16:03;6.80;;;3.28;;
10132;SDS011;5106;50.926;7.080;2023-05-29T12:18:31;9.30;;;3.42;;
10132;SDS011;5106;50.926;7.080;2023-05-29T12:21:02;7.55;;;3.22;;
10132;SDS011;5106;50.926;7.080;2023-05-29T12:23:29;6.68;;;3.38;;
10132;SDS011;5106;50.926;7.080;2023-05-29T12:25:55;6.68;;;3.25;;
10132;SDS011;5106;50.926;7.080;2023-05-29T12:28:21;7.63;;;3.58;;
10132;SDS011;5106;50.926;7.080;2023-05-29T12:30:47;7.28;;;3.55;;
10132;SDS011;5106;50.926;7.080;2023-05-29T12:33:30;5.28;;;3.40;;
10132;SDS011;5106;50.926;7.080;2023-05-29T12:36:07;9.55;;;3.30;;
10132;SDS011;5106;50.926;7.080;2023-05-29T12:38:46;8.30;;;3.60;;
10132;SDS011;5106;50.926;7.080;2023-05-29T12:41:29;8.50;;;3.40;;
10132;SDS011;5106;50.926;7.080;2023-05-29T12:43:58;8.95;;;3.67;;
10132;SDS011;5106;50.926;7.080;2023-05-29T12:46:26;8.55;;;3.42;;
10132;SDS011;5106;50.926;7.080;2023-05-29T12:48:53;8.15;;;3.15;;
10132;SDS011;5106;50.926;7.080;2023-05-29T12:51:24;5.97;;;3.17;;
10132;SDS011;5106;50.926;7.080;2023-05-29T12:53:53;7.03;;;2.97;;
10132;SDS011;5106;50.926;7.080;2023-05-29T12:56:23;7.13;;;3.00;;
10132;SDS011;5106;50.926;7.080;2023-05-29T12:58:51;6.78;;;3.08;;
10132;SDS011;5106;50.926;7.080;2023-05-29T13:01:17;5.97;;;3.20;;
10132;SDS011;5106;50.926;7.080;2023-05-29T13:03:42;8.38;;;3.10;;
10132;SDS011;5106;50.926;7.080;2023-05-29T13:06:09;11.02;;;3.90;;
10132;SDS011;5106;50.926;7.080;2023-05-29T13:08:36;7.78;;;3.63;;
10132;SDS011;5106;50.926;7.080;2023-05-29T13:11:02;6.45;;;3.00;;
10132;SDS011;5106;50.926;7.080;2023-05-29T13:13:27;7.65;;;3.28;;
10132;SDS011;5106;50.926;7.080;2023-05-29T13:15:54;10.07;;;3.83;;
10132;SDS011;5106;50.926;7.080;2023-05-29T13:18:23;7.68;;;3.25;;
10132;SDS011;5106;50.926;7.080;2023-05-29T13:20:49;7.13;;;3.00;;
10132;SDS011;5106;50.926;7.080;2023-05-29T13:23:15;8.18;;;3.00;;
10132;SDS011;5106;50.926;7.080;2023-05-29T13:25:40;7.68;;;3.20;;
10132;SDS011;5106;50.926;7.080;2023-05-29T13:28:06;8.93;;;3.28;;
10132;SDS011;5106;50.926;7.080;2023-05-29T13:30:32;6.78;;;2.92;;
10132;SDS011;5106;50.926;7.080;2023-05-29T13:32:57;9.60;;;3.53;;
10132;SDS011;5106;50.926;7.080;2023-05-29T13:35:23;6.65;;;3.15;;
10132;SDS011;5106;50.926;7.080;2023-05-29T13:37:49;8.35;;;3.13;;
10132;SDS011;5106;50.926;7.080;2023-05-29T13:40:14;6.50;;;2.90;;
10132;SDS011;5106;50.926;7.080;2023-05-29T13:42:40;8.13;;;3.30;;
10132;SDS011;5106;50.926;7.080;2023-05-29T13:45:06;6.65;;;3.28;;
10132;SDS011;5106;50.926;7.080;2023-05-29T13:47:32;6.68;;;2.90;;
10132;SDS011;5106;50.926;7.080;2023-05-29T13:49:58;7.43;;;3.20;;
10132;SDS011;5106;50.926;7.080;2023-05-29T13:52:25;9.75;;;3.30;;
10132;SDS011;5106;50.926;7.080;2023-05-29T13:54:51;8.77;;;3.30;;
10132;SDS011;5106;50.926;7.080;2023-05-29T13:57:17;8.68;;;3.33;;
10132;SDS011;5106;50.926;7.080;2023-05-29T13:59:42;8.23;;;3.10;;
10132;SDS011;5106;50.926;7.080;2023-05-29T14:02:08;8.75;;;3.25;;
10132;SDS011;5106;50.926;7.080;2023-05-29T14:04:33;6.25;;;3.13;;
10132;SDS011;5106;50.926;7.080;2023-05-29T14:06:59;7.03;;;3.03;;
10132;SDS011;5106;50.926;7.080;2023-05-29T14:09:25;8.85;;;3.60;;
10132;SDS011;5106;50.926;7.080;2023-05-29T14:11:54;8.27;;;2.90;;
10132;SDS011;5106;50.926;7.080;2023-05-29T14:14:21;6.00;;;2.80;;
10132;SDS011;5106;50.926;7.080;2023-05-29T14:16:47;7.35;;;3.03;;
10132;SDS011;5106;50.926;7.080;2023-05-29T14:19:13;8.63;;;2.97;;
10132;SDS011;5106;50.926;7.080;2023-05-29T14:21:38;7.28;;;3.00;;
10132;SDS011;5106;50.926;7.080;2023-05-29T14:24:04;6.90;;;3.42;;
10132;SDS011;5106;50.926;7.080;2023-05-29T14:26:30;7.82;;;3.28;;
10132;SDS011;5106;50.926;7.080;2023-05-29T14:28:55;8.65;;;3.10;;
10132;SDS011;5106;50.926;7.080;2023-05-29T14:31:21;4.63;;;2.80;;
10132;SDS011;5106;50.926;7.080;2023-05-29T14:33:47;8.25;;;3.20;;
10132;SDS011;5106;50.926;7.080;2023-05-29T14:36:12;5.85;;;2.95;;
10132;SDS011;5106;50.926;7.080;2023-05-29T14:38:38;9.27;;;2.97;;
10132;SDS011;5106;50.926;7.080;2023-05-29T14:41:03;7.40;;;3.42;;
10132;SDS011;5106;50.926;7.080;2023-05-29T14:43:29;5.35;;;2.88;;
10132;SDS011;5106;50.926;7.080;2023-05-29T14:45:55;6.25;;;2.75;;
10132;SDS011;5106;50.926;7.080;2023-05-29T14:48:20;7.00;;;2.90;;
10132;SDS011;5106;50.926;7.080;2023-05-29T14:50:46;7.25;;;3.13;;
10132;SDS011;5106;50.926;7.080;2023-05-29T14:53:12;6.45;;;3.00;;
10132;SDS011;5106;50.926;7.080;2023-05-29T14:55:38;5.93;;;2.97;;
10132;SDS011;5106;50.926;7.080;2023-05-29T14:58:04;5.90;;;3.08;;
10132;SDS011;5106;50.926;7.080;2023-05-29T15:00:30;4.50;;;2.63;;
10132;SDS011;5106;50.926;7.080;2023-05-29T15:02:56;7.38;;;3.00;;
10132;SDS011;5106;50.926;7.080;2023-05-29T15:05:24;5.72;;;2.83;;
10132;SDS011;5106;50.926;7.080;2023-05-29T15:07:53;6.03;;;3.30;;
10132;SDS011;5106;50.926;7.080;2023-05-29T15:10:22;6.65;;;3.28;;
10132;SDS011;5106;50.926;7.080;2023-05-29T15:12:54;6.13;;;2.83;;
10132;SDS011;5106;50.926;7.080;2023-05-29T15:15:23;9.88;;;3.03;;
10132;SDS011;5106;50.926;7.080;2023-05-29T15:17:50;5.15;;;3.20;;
10132;SDS011;5106;50.926;7.080;2023-05-29T15:20:20;5.35;;;2.83;;
10132;SDS011;5106;50.926;7.080;2023-05-29T15:22:49;8.85;;;3.05;;
10132;SDS011;5106;50.926;7.080;2023-05-29T15:25:16;7.47;;;3.35;;
10132;SDS011;5106;50.926;7.080;2023-05-29T15:27:42;5.03;;;3.20;;
10132;SDS011;5106;50.926;7.080;2023-05-29T15:30:09;6.93;;;3.08;;
10132;SDS011;5106;50.926;7.080;2023-05-29T15:32:35;8.10;;;2.80;;